createdAt,value
2018-03-24T00:01:03.434Z,30.08
2018-03-24T00:03:30.894Z,27.90
2018-03-24T00:05:58.368Z,26.55
2018-03-24T00:08:25.818Z,26.83
2018-03-24T00:10:53.283Z,24.97
2018-03-24T00:13:20.754Z,23.73
2018-03-24T00:15:48.202Z,27.80
2018-03-24T00:18:15.671Z,28.33
2018-03-24T00:20:43.132Z,24.10
2018-03-24T00:23:10.598Z,25.98
2018-03-24T00:25:38.059Z,24.30
2018-03-24T00:28:05.514Z,24.87
2018-03-24T00:30:32.975Z,26.62
2018-03-24T00:33:01.211Z,25.88
2018-03-24T00:35:28.685Z,26.80
2018-03-24T00:37:56.148Z,23.83
2018-03-24T00:40:23.603Z,27.83
2018-03-24T00:42:51.074Z,25.65
2018-03-24T00:45:18.530Z,24.65
2018-03-24T00:47:45.991Z,24.53
2018-03-24T00:50:13.446Z,23.48
2018-03-24T00:52:40.901Z,24.95
2018-03-24T00:55:08.365Z,26.60
2018-03-24T00:57:35.856Z,24.90
2018-03-24T01:00:04.084Z,24.42
2018-03-24T01:02:31.542Z,25.30
2018-03-24T01:04:59.019Z,24.83
2018-03-24T01:07:26.474Z,23.85
2018-03-24T01:09:53.927Z,28.08
2018-03-24T01:12:21.410Z,26.15
2018-03-24T01:14:49.643Z,27.35
2018-03-24T01:17:17.107Z,26.73
2018-03-24T01:19:44.566Z,24.98
2018-03-24T01:22:12.027Z,27.58
2018-03-24T01:24:39.482Z,26.85
2018-03-24T01:27:06.940Z,30.90
2018-03-24T01:29:34.407Z,25.27
2018-03-24T01:32:01.862Z,24.17
2018-03-24T01:34:29.338Z,26.12
2018-03-24T01:36:56.807Z,27.00
2018-03-24T01:39:25.047Z,24.73
2018-03-24T01:41:52.508Z,24.90
2018-03-24T01:44:19.967Z,26.02
2018-03-24T01:46:47.427Z,28.42
2018-03-24T01:49:14.872Z,26.63
2018-03-24T02:06:25.915Z,21.60
2018-03-24T02:08:53.389Z,32.00
2018-03-24T02:11:20.829Z,30.20
2018-03-24T02:13:48.290Z,30.75
2018-03-24T02:16:15.750Z,29.60
2018-03-24T02:18:43.214Z,24.47
2018-03-24T02:21:10.666Z,25.83
2018-03-24T02:23:38.131Z,34.70
2018-03-24T02:26:05.586Z,26.37
2018-03-24T02:28:33.050Z,26.97
2018-03-24T02:31:00.514Z,30.80
2018-03-24T02:33:27.978Z,29.10
2018-03-24T02:35:55.430Z,28.33
2018-03-24T02:38:22.899Z,25.47
2018-03-24T02:43:17.395Z,31.50
2018-03-24T02:45:44.861Z,31.52
2018-03-24T02:48:12.327Z,32.78
2018-03-24T02:50:39.790Z,28.97
2018-03-24T02:53:07.239Z,23.70
2018-03-24T02:55:34.707Z,29.63
2018-03-24T02:58:02.167Z,33.87
2018-03-24T03:00:29.630Z,28.57
2018-03-24T03:02:57.076Z,29.10
2018-03-24T03:05:24.546Z,42.53
2018-03-24T03:07:52.005Z,48.00
2018-03-24T03:10:19.480Z,45.53
2018-03-24T03:12:46.951Z,39.42
2018-03-24T03:15:14.405Z,35.07
2018-03-24T03:17:41.881Z,37.35
2018-03-24T03:20:10.103Z,37.08
2018-03-24T03:22:37.567Z,35.50
2018-03-24T03:25:05.037Z,34.08
2018-03-24T03:27:32.493Z,34.08
2018-03-24T03:29:59.956Z,33.33
2018-03-24T03:32:27.437Z,34.58
2018-03-24T03:34:55.663Z,30.30
2018-03-24T03:37:23.123Z,30.20
2018-03-24T03:39:50.600Z,37.60
2018-03-24T03:42:18.063Z,30.73
2018-03-24T03:44:45.524Z,29.98
2018-03-24T03:47:12.986Z,29.75
2018-03-24T03:49:40.437Z,28.00
2018-03-24T03:52:07.913Z,29.77
2018-03-24T03:54:35.349Z,26.80
2018-03-24T03:57:02.815Z,26.07
2018-03-24T03:59:30.291Z,42.85
2018-03-24T04:01:58.518Z,49.58
2018-03-24T04:04:25.986Z,45.23
2018-03-24T04:06:53.455Z,46.42
2018-03-24T04:09:20.910Z,42.65
2018-03-24T04:11:48.366Z,34.80
2018-03-24T04:14:15.822Z,38.10
2018-03-24T04:16:43.286Z,38.42
2018-03-24T04:19:10.777Z,38.35
2018-03-24T04:21:39.006Z,33.95
2018-03-24T04:24:06.455Z,39.55
2018-03-24T04:26:33.977Z,36.30
2018-03-24T04:29:01.374Z,34.42
2018-03-24T04:31:28.855Z,33.90
2018-03-24T04:33:56.314Z,38.10
2018-03-24T04:36:23.772Z,36.83
2018-03-24T04:38:51.239Z,35.00
2018-03-24T04:41:18.690Z,33.08
2018-03-24T04:43:46.150Z,31.33
2018-03-24T04:46:13.608Z,32.70
2018-03-24T04:48:41.079Z,33.15
2018-03-24T04:51:08.526Z,42.63
2018-03-24T04:53:36.000Z,33.47
2018-03-24T04:56:04.236Z,32.00
2018-03-24T04:58:31.702Z,49.35
2018-03-24T05:00:59.167Z,44.95
2018-03-24T05:03:26.638Z,34.83
2018-03-24T05:05:54.102Z,35.83
2018-03-24T05:08:21.569Z,37.10
2018-03-24T05:10:49.031Z,33.83
2018-03-24T05:13:16.498Z,38.55
2018-03-24T05:15:43.958Z,50.33
2018-03-24T05:18:11.442Z,72.73
2018-03-24T05:20:38.900Z,48.25
2018-03-24T05:23:06.355Z,43.83
2018-03-24T05:25:33.818Z,37.25
2018-03-24T05:28:01.285Z,37.08
2018-03-24T05:30:28.748Z,37.23
2018-03-24T05:32:56.211Z,41.97
2018-03-24T05:35:23.668Z,40.15
2018-03-24T05:37:51.134Z,38.90
2018-03-24T05:40:18.594Z,38.78
2018-03-24T05:42:46.052Z,38.23
2018-03-24T05:45:13.526Z,39.63
2018-03-24T05:47:40.985Z,43.35
2018-03-24T05:50:08.451Z,43.35
2018-03-24T05:52:35.915Z,45.60
2018-03-24T05:55:04.143Z,44.43
2018-03-24T05:57:31.605Z,42.75
2018-03-24T05:59:59.077Z,56.88
2018-03-24T06:02:26.526Z,51.37
2018-03-24T06:04:54.763Z,47.47
2018-03-24T06:07:22.235Z,44.65
2018-03-24T06:09:49.699Z,40.67
2018-03-24T06:12:17.179Z,48.65
2018-03-24T06:14:44.643Z,48.00
2018-03-24T06:17:12.115Z,46.22
2018-03-24T06:19:39.587Z,55.08
2018-03-24T06:22:07.825Z,49.13
2018-03-24T06:24:35.281Z,47.92
2018-03-24T06:27:02.756Z,54.28
2018-03-24T06:29:30.221Z,56.40
2018-03-24T06:31:57.681Z,69.50
2018-03-24T06:34:25.196Z,72.55
2018-03-24T06:36:58.333Z,76.78
2018-03-24T06:39:25.795Z,68.30
2018-03-24T06:41:53.262Z,66.43
2018-03-24T06:44:27.507Z,67.18
2018-03-24T06:46:54.963Z,61.35
2018-03-24T06:49:22.435Z,59.15
2018-03-24T06:51:49.893Z,60.90
2018-03-24T06:54:17.356Z,61.27
2018-03-24T06:56:44.831Z,65.80
2018-03-24T06:59:12.318Z,60.03
2018-03-24T07:01:39.799Z,59.28
2018-03-24T07:04:08.046Z,55.30
2018-03-24T07:06:35.506Z,57.20
2018-03-24T07:09:02.966Z,52.37
2018-03-24T07:11:30.435Z,52.15
2018-03-24T07:13:57.899Z,50.85
2018-03-24T07:16:26.472Z,51.50
2018-03-24T07:18:53.944Z,52.33
2018-03-24T07:21:22.164Z,53.40
2018-03-24T07:23:49.643Z,50.30
2018-03-24T07:26:17.099Z,47.50
2018-03-24T07:28:44.566Z,48.55
2018-03-24T07:31:12.040Z,47.45
2018-03-24T07:33:39.505Z,44.97
2018-03-24T07:36:06.966Z,43.00
2018-03-24T07:38:35.186Z,45.72
2018-03-24T07:41:02.658Z,38.97
2018-03-24T07:43:30.109Z,39.72
2018-03-24T07:45:57.589Z,40.10
2018-03-24T07:48:25.039Z,36.83
2018-03-24T07:50:53.266Z,38.20
2018-03-24T07:53:20.729Z,35.73
2018-03-24T07:55:48.179Z,35.60
2018-03-24T07:58:15.639Z,26.93
2018-03-24T08:00:43.094Z,30.70
2018-03-24T08:03:10.557Z,31.03
2018-03-24T08:05:38.027Z,27.90
2018-03-24T08:08:05.478Z,33.20
2018-03-24T08:10:32.937Z,28.43
2018-03-24T08:13:00.389Z,30.20
2018-03-24T08:15:28.622Z,27.70
2018-03-24T08:17:56.083Z,23.77
2018-03-24T08:20:23.545Z,23.80
2018-03-24T08:22:51.003Z,23.03
2018-03-24T08:25:18.458Z,24.93
2018-03-24T08:27:45.913Z,20.80
2018-03-24T08:30:13.385Z,26.20
2018-03-24T08:32:40.838Z,29.63
2018-03-24T08:35:08.302Z,20.90
2018-03-24T08:37:35.764Z,21.40
2018-03-24T08:40:03.231Z,18.23
2018-03-24T10:01:05.108Z,14.27
2018-03-24T10:03:32.559Z,15.82
2018-03-24T10:06:00.018Z,15.63
2018-03-24T10:08:27.479Z,20.62
2018-03-24T10:10:54.973Z,18.33
2018-03-24T10:13:22.412Z,18.10
2018-03-24T10:15:49.876Z,17.42
2018-03-24T10:18:17.333Z,15.05
2018-03-24T10:24:32.954Z,16.87
2018-03-24T10:27:01.161Z,16.20
2018-03-24T10:29:29.364Z,16.12
2018-03-24T10:31:56.817Z,17.48
2018-03-24T10:34:24.260Z,16.48
2018-03-24T10:36:51.704Z,18.00
2018-03-24T10:39:19.913Z,17.15
2018-03-24T10:41:47.365Z,16.87
2018-03-24T10:44:15.581Z,19.00
2018-03-24T10:46:43.035Z,18.12
2018-03-24T10:49:10.467Z,18.50
2018-03-24T10:51:37.914Z,15.70
2018-03-24T10:54:06.116Z,16.58
2018-03-24T10:56:34.320Z,18.20
2018-03-24T10:59:01.772Z,18.95
2018-03-24T11:01:29.224Z,16.83
2018-03-24T11:03:56.673Z,16.80
2018-03-24T11:06:24.116Z,19.23
2018-03-24T11:08:52.323Z,17.17
2018-03-24T11:11:20.589Z,17.50
2018-03-24T11:13:47.982Z,15.10
2018-03-24T11:16:15.424Z,19.95
2018-03-24T11:18:42.865Z,17.00
2018-03-24T11:21:11.073Z,14.73
2018-03-24T11:23:39.295Z,18.73
2018-03-24T11:26:06.732Z,19.62
2018-03-24T11:28:34.189Z,15.30
2018-03-24T11:31:01.641Z,15.18
2018-03-24T11:33:29.081Z,15.20
2018-03-24T11:35:57.299Z,14.60
2018-03-24T11:38:24.740Z,16.92
2018-03-24T11:40:52.188Z,16.92
2018-03-24T11:43:19.647Z,16.17
2018-03-24T11:45:47.148Z,14.85
2018-03-24T12:15:13.751Z,10.20
2018-03-24T12:17:41.224Z,9.65
2018-03-24T12:20:08.672Z,10.15
2018-03-24T12:22:36.115Z,11.57
2018-03-24T12:25:03.552Z,9.43
2018-03-24T12:27:31.764Z,12.27
2018-03-24T12:29:59.203Z,9.87
2018-03-24T12:32:26.654Z,10.70
2018-03-24T12:34:54.083Z,11.85
2018-03-24T12:37:22.292Z,11.50
2018-03-24T12:39:50.508Z,10.00
2018-03-24T12:42:17.936Z,11.40
2018-03-24T12:44:45.384Z,11.18
2018-03-24T12:47:12.830Z,9.70
2018-03-24T12:49:41.026Z,11.77
2018-03-24T12:52:08.473Z,10.90
2018-03-24T12:54:35.913Z,11.80
2018-03-24T12:57:03.360Z,12.13
2018-03-24T12:59:31.560Z,11.90
2018-03-24T13:01:59.781Z,12.13
2018-03-24T13:04:27.204Z,12.00
2018-03-24T13:06:54.647Z,11.10
2018-03-24T13:09:22.112Z,10.30
2018-03-24T13:11:49.558Z,10.80
2018-03-24T13:14:17.016Z,11.30
2018-03-24T13:16:44.456Z,9.30
2018-03-24T13:19:11.901Z,10.18
2018-03-24T13:21:39.340Z,10.88
2018-03-24T13:24:06.789Z,10.83
2018-03-24T13:26:34.241Z,12.70
2018-03-24T13:29:01.692Z,10.55
2018-03-24T13:31:29.146Z,12.32
2018-03-24T13:33:56.584Z,10.00
2018-03-24T13:36:24.032Z,10.68
2018-03-24T13:38:51.489Z,10.35
2018-03-24T13:41:18.915Z,11.40
2018-03-24T13:43:46.393Z,11.85
2018-03-24T13:46:13.833Z,11.05
2018-03-24T13:48:41.267Z,11.38
2018-03-24T13:51:08.703Z,12.00
2018-03-24T13:53:36.151Z,12.77
2018-03-24T13:56:03.596Z,21.65
2018-03-24T13:58:31.048Z,11.20
2018-03-24T14:00:58.508Z,16.48
2018-03-24T14:03:25.969Z,13.35
2018-03-24T14:05:54.176Z,13.15
2018-03-24T14:08:21.620Z,13.43
2018-03-24T14:10:49.060Z,12.97
2018-03-24T14:13:16.520Z,13.27
2018-03-24T14:15:43.970Z,14.05
2018-03-24T15:29:33.947Z,20.30
2018-03-24T15:32:14.102Z,16.10
2018-03-24T15:34:53.443Z,18.63
2018-03-24T15:37:20.886Z,20.00
2018-03-24T15:39:48.333Z,18.87
2018-03-24T15:42:15.763Z,18.77
2018-03-24T15:44:43.212Z,18.10
2018-03-24T15:47:11.425Z,20.30
2018-03-24T15:49:38.876Z,17.85
2018-03-24T15:52:06.311Z,18.87
2018-03-24T15:54:33.752Z,22.13
2018-03-24T15:57:01.959Z,20.67
2018-03-24T15:59:30.166Z,20.88
2018-03-24T16:01:57.620Z,24.27
2018-03-24T16:04:25.054Z,24.43
2018-03-24T16:06:52.487Z,22.10
2018-03-24T16:09:20.695Z,25.33
2018-03-24T16:11:48.900Z,26.07
2018-03-24T16:14:16.345Z,28.50
2018-03-24T16:16:43.793Z,26.07
2018-03-24T16:19:11.244Z,29.40
2018-03-24T16:21:39.448Z,27.10
2018-03-24T16:24:06.893Z,23.67
2018-03-24T16:26:34.332Z,29.07
2018-03-24T16:29:01.767Z,21.17
2018-03-24T17:20:33.664Z,25.50
2018-03-24T17:23:01.112Z,24.02
2018-03-24T17:25:28.556Z,25.75
2018-03-24T17:27:56.027Z,24.10
2018-03-24T17:30:24.200Z,27.37
2018-03-24T17:32:52.404Z,24.75
2018-03-24T17:35:19.852Z,32.75
2018-03-24T17:37:47.292Z,25.55
2018-03-24T17:40:14.727Z,25.70
2018-03-24T17:42:42.942Z,26.55
2018-03-24T17:45:11.148Z,27.27
2018-03-24T17:47:38.591Z,27.65
2018-03-24T17:50:06.045Z,28.10
2018-03-24T17:52:33.492Z,25.60
2018-03-24T17:55:00.941Z,26.08
2018-03-24T17:57:29.154Z,25.55
2018-03-24T17:59:57.358Z,24.85
2018-03-24T18:02:24.794Z,26.55
2018-03-24T18:04:52.253Z,27.40
2018-03-24T18:07:19.692Z,27.45
2018-03-24T18:09:47.909Z,25.17
2018-03-24T18:12:15.339Z,27.80
2018-03-24T18:14:42.804Z,28.58
2018-03-24T18:17:10.245Z,28.70
2018-03-24T18:19:37.687Z,25.40
2018-03-24T18:22:05.128Z,23.00
2018-03-24T18:24:32.572Z,25.30
2018-03-24T18:27:00.779Z,24.43
2018-03-24T18:29:28.988Z,26.85
2018-03-24T18:31:56.441Z,32.75
2018-03-24T18:34:23.880Z,32.75
2018-03-24T18:36:51.320Z,27.30
2018-03-24T18:39:19.539Z,29.10
2018-03-24T18:41:46.983Z,29.73
2018-03-24T18:44:15.211Z,34.50
2018-03-24T18:46:42.648Z,33.92
2018-03-24T18:49:10.085Z,38.47
2018-03-24T18:51:37.543Z,37.13
2018-03-24T18:54:04.977Z,34.00
2018-03-24T18:56:32.428Z,31.33
2018-03-24T18:58:59.870Z,31.87
2018-03-24T19:01:28.100Z,38.55
2018-03-24T19:03:55.540Z,31.05
2018-03-24T19:06:23.757Z,35.58
2018-03-24T19:08:51.960Z,35.53
2018-03-24T19:11:19.433Z,42.53
2018-03-24T19:13:47.640Z,46.70
2018-03-24T19:16:15.084Z,43.87
2018-03-24T19:18:42.525Z,44.90
2018-03-24T19:21:09.981Z,61.78
2018-03-24T19:23:38.180Z,78.90
2018-03-24T19:26:05.620Z,54.10
2018-03-24T19:28:33.063Z,44.30
2018-03-24T19:31:00.518Z,46.13
2018-03-24T19:33:28.717Z,60.33
2018-03-24T19:35:56.946Z,53.80
2018-03-24T19:38:24.352Z,39.25
2018-03-24T19:40:51.799Z,43.42
2018-03-24T19:43:19.242Z,39.58
2018-03-24T19:45:47.446Z,39.70
2018-03-24T19:48:15.664Z,36.17
2018-03-24T19:50:43.116Z,34.15
2018-03-24T19:53:11.335Z,41.33
2018-03-24T19:55:38.771Z,32.70
2018-03-24T19:58:06.199Z,34.60
2018-03-24T20:00:33.664Z,30.55
2018-03-24T20:03:01.944Z,37.05
2018-03-24T20:05:29.324Z,35.83
2018-03-24T20:07:56.764Z,32.37
2018-03-24T20:10:24.224Z,55.45
2018-03-24T20:12:51.659Z,49.88
2018-03-24T20:15:19.875Z,38.50
2018-03-24T20:17:48.106Z,46.42
2018-03-24T20:20:15.561Z,71.50
2018-03-24T20:22:43.776Z,71.97
2018-03-24T20:25:11.212Z,63.05
2018-03-24T20:27:38.661Z,69.93
2018-03-24T20:30:06.112Z,64.78
2018-03-24T20:32:34.309Z,43.10
2018-03-24T20:35:02.529Z,51.45
2018-03-24T20:37:29.964Z,55.80
2018-03-24T20:39:57.411Z,48.20
2018-03-24T20:42:24.889Z,39.10
2018-03-24T20:44:53.053Z,31.40
2018-03-24T20:47:21.256Z,28.73
2018-03-24T20:49:48.699Z,30.08
2018-03-24T20:52:16.933Z,28.67
2018-03-24T20:54:44.371Z,44.95
2018-03-24T20:57:11.812Z,38.80
2018-03-24T20:59:39.260Z,34.97
2018-03-24T21:02:07.465Z,42.20
2018-03-24T21:04:34.906Z,49.20
2018-03-24T21:07:02.364Z,49.75
2018-03-24T21:09:29.792Z,54.05
2018-03-24T21:11:57.995Z,45.08
2018-03-24T21:14:25.435Z,97.97
2018-03-24T21:16:52.887Z,58.78
2018-03-24T21:19:20.323Z,41.28
2018-03-24T21:21:48.532Z,31.52
2018-03-24T21:24:16.746Z,28.17
2018-03-24T21:26:44.179Z,25.60
2018-03-24T21:29:11.629Z,25.33
2018-03-24T21:31:39.078Z,28.55
2018-03-24T21:34:07.280Z,25.57
2018-03-24T21:36:35.524Z,25.73
2018-03-24T21:39:02.935Z,26.58
2018-03-24T21:41:30.381Z,27.55
2018-03-24T21:43:57.821Z,25.40
2018-03-24T21:46:25.276Z,25.33
2018-03-24T21:48:52.708Z,27.48
2018-03-24T21:51:20.155Z,30.70
2018-03-24T21:53:48.356Z,34.97
2018-03-24T21:56:15.809Z,35.17
2018-03-24T21:58:43.250Z,37.47
2018-03-24T22:01:10.693Z,33.80
2018-03-24T22:03:38.905Z,35.72
2018-03-24T22:06:06.348Z,33.88
2018-03-24T22:08:33.784Z,32.67
2018-03-24T22:11:01.240Z,43.50
2018-03-24T22:13:28.672Z,72.72
2018-03-24T22:15:56.121Z,66.03
2018-03-24T22:18:23.574Z,50.65
2018-03-24T22:20:51.831Z,43.70
2018-03-24T22:23:19.231Z,37.75
2018-03-24T22:25:46.660Z,29.92
2018-03-24T22:28:14.103Z,32.17
2018-03-24T22:30:42.936Z,30.77
2018-03-24T22:33:10.381Z,37.28
2018-03-24T22:35:37.812Z,36.13
2018-03-24T22:38:05.261Z,31.42
2018-03-24T22:40:33.476Z,31.87
2018-03-24T22:43:00.939Z,30.55
2018-03-24T22:45:28.363Z,32.43
2018-03-24T22:47:55.815Z,34.90
2018-03-24T22:50:23.260Z,38.85
2018-03-24T22:52:50.704Z,41.87
2018-03-24T22:55:18.142Z,42.58
2018-03-24T22:57:46.351Z,63.78
2018-03-24T23:00:13.788Z,49.67
2018-03-24T23:02:41.245Z,47.42
2018-03-24T23:05:08.680Z,47.85
2018-03-24T23:07:36.893Z,38.15
2018-03-24T23:10:05.104Z,33.60
2018-03-24T23:12:32.539Z,31.90
2018-03-24T23:14:59.988Z,30.27
2018-03-24T23:17:27.429Z,29.48
2018-03-24T23:19:54.873Z,25.33
2018-03-24T23:22:22.316Z,23.42
2018-03-24T23:24:49.765Z,29.65
2018-03-24T23:27:17.984Z,33.60
2018-03-24T23:29:45.424Z,37.65
2018-03-24T23:32:12.861Z,43.03
2018-03-24T23:34:40.295Z,41.05
2018-03-24T23:37:08.505Z,44.97
2018-03-24T23:39:36.717Z,39.30
2018-03-24T23:42:04.936Z,36.05
2018-03-24T23:44:32.368Z,33.45
2018-03-24T23:46:59.816Z,32.50
2018-03-24T23:49:27.259Z,28.85
2018-03-24T23:51:54.695Z,27.25
2018-03-24T23:54:22.139Z,28.70
2018-03-24T23:56:49.599Z,27.90
2018-03-24T23:59:17.036Z,28.10
